createdAt,value
2022-10-22T00:01:09.806Z,82.47
2022-10-22T00:03:40.124Z,82.79
2022-10-22T00:06:08.660Z,82.95
2022-10-22T00:08:36.535Z,82.78
2022-10-22T00:11:16.054Z,82.63
2022-10-22T00:13:44.865Z,82.57
2022-10-22T00:16:13.235Z,82.76
2022-10-22T00:18:41.307Z,82.63
2022-10-22T00:21:09.210Z,82.84
2022-10-22T00:23:41.295Z,83.05
2022-10-22T00:26:10.722Z,83.13
2022-10-22T00:28:39.253Z,83.23
2022-10-22T00:31:07.230Z,83.39
2022-10-22T00:33:35.076Z,83.15
2022-10-22T00:36:03.059Z,83.44
2022-10-22T00:38:30.880Z,83.28
2022-10-22T00:40:58.901Z,83.41
2022-10-22T00:43:27.547Z,83.20
2022-10-22T00:45:55.360Z,83.52
2022-10-22T00:48:30.703Z,83.66
2022-10-22T00:51:03.222Z,83.57
2022-10-22T00:53:43.038Z,83.46
2022-10-22T00:56:11.297Z,83.53
2022-10-22T00:58:47.235Z,83.79
2022-10-22T01:01:21.657Z,83.76
2022-10-22T01:03:50.284Z,83.74
2022-10-22T01:06:27.843Z,83.79
2022-10-22T01:09:14.062Z,83.86
2022-10-22T01:12:00.007Z,84.29
2022-10-22T01:14:44.026Z,84.40
2022-10-22T01:17:23.492Z,84.17
2022-10-22T01:20:16.197Z,84.36
2022-10-22T01:23:16.587Z,84.29
2022-10-22T01:25:56.312Z,84.30
2022-10-22T01:28:36.340Z,84.45
2022-10-22T01:31:06.040Z,84.50
2022-10-22T01:33:34.147Z,85.41
2022-10-22T01:36:04.721Z,85.08
2022-10-22T01:38:33.937Z,85.10
2022-10-22T01:41:02.611Z,85.21
2022-10-22T01:43:30.484Z,85.53
2022-10-22T01:46:01.406Z,85.61
2022-10-22T01:48:35.713Z,85.67
2022-10-22T01:51:18.867Z,86.33
2022-10-22T01:53:59.062Z,86.40
2022-10-22T01:56:42.136Z,87.60
2022-10-22T01:59:29.502Z,87.27
2022-10-22T02:02:13.856Z,87.24
2022-10-22T02:04:46.553Z,86.96
2022-10-22T02:07:19.789Z,87.76
2022-10-22T02:09:50.641Z,87.67
2022-10-22T02:12:20.871Z,87.41
2022-10-22T02:14:50.826Z,87.30
2022-10-22T02:17:21.955Z,87.26
2022-10-22T02:19:53.273Z,87.76
2022-10-22T02:22:21.578Z,87.87
2022-10-22T02:24:50.344Z,87.66
2022-10-22T02:27:32.771Z,87.68
2022-10-22T02:33:08.365Z,87.53
2022-10-22T02:35:39.076Z,87.70
2022-10-22T02:38:08.446Z,87.71
2022-10-22T02:40:36.696Z,87.79
2022-10-22T02:43:06.089Z,87.81
2022-10-22T02:45:34.818Z,87.96
2022-10-22T02:48:03.111Z,88.27
2022-10-22T02:50:31.166Z,87.95
2022-10-22T02:52:59.005Z,88.19
2022-10-22T02:55:26.856Z,88.24
2022-10-22T02:57:54.734Z,88.38
2022-10-22T03:00:22.873Z,88.63
2022-10-22T03:02:50.653Z,88.89
2022-10-22T03:05:18.622Z,88.36
2022-10-22T03:07:46.427Z,88.95
2022-10-22T03:10:14.390Z,89.03
2022-10-22T03:12:42.216Z,89.05
2022-10-22T03:15:10.474Z,89.10
2022-10-22T03:17:38.620Z,89.04
2022-10-22T03:20:07.209Z,88.76
2022-10-22T03:22:36.746Z,88.88
2022-10-22T03:25:09.836Z,88.92
2022-10-22T03:27:39.632Z,89.19
2022-10-22T03:30:08.459Z,89.16
2022-10-22T03:32:36.277Z,89.12
2022-10-22T03:35:05.656Z,89.20
2022-10-22T03:37:34.943Z,89.91
2022-10-22T03:40:05.787Z,89.90
2022-10-22T03:42:33.779Z,89.71
2022-10-22T03:45:01.775Z,89.66
2022-10-22T03:47:29.606Z,89.29
2022-10-22T03:49:57.341Z,89.68
2022-10-22T03:52:25.151Z,90.33
2022-10-22T03:54:52.979Z,89.86
2022-10-22T03:57:20.754Z,90.04
2022-10-22T03:59:48.808Z,89.82
2022-10-22T04:02:16.836Z,90.07
2022-10-22T04:04:44.640Z,90.26
2022-10-22T04:07:12.500Z,90.11
2022-10-22T04:09:40.340Z,90.56
2022-10-22T04:12:09.590Z,90.35
2022-10-22T04:14:37.406Z,91.07
2022-10-22T04:17:05.350Z,90.57
2022-10-22T04:19:33.237Z,91.13
2022-10-22T04:22:01.085Z,90.82
2022-10-22T04:24:30.610Z,91.07
2022-10-22T04:26:58.635Z,91.39
2022-10-22T04:29:26.784Z,91.48
2022-10-22T04:31:54.595Z,91.22
2022-10-22T04:34:22.446Z,92.16
2022-10-22T04:36:50.278Z,91.80
2022-10-22T04:39:18.159Z,91.76
2022-10-22T04:41:45.970Z,91.99
2022-10-22T04:44:16.424Z,92.51
2022-10-22T04:46:46.436Z,92.77
2022-10-22T04:49:14.458Z,92.23
2022-10-22T04:51:42.327Z,91.95
2022-10-22T04:54:10.209Z,91.82
2022-10-22T04:56:38.072Z,91.74
2022-10-22T04:59:08.342Z,91.67
2022-10-22T05:01:42.661Z,91.84
2022-10-22T05:04:13.751Z,91.76
2022-10-22T05:06:41.700Z,91.77
2022-10-22T05:09:16.140Z,92.00
2022-10-22T05:11:48.909Z,91.78
2022-10-22T05:14:22.205Z,91.31
2022-10-22T05:16:51.326Z,91.12
2022-10-22T05:19:24.214Z,91.47
2022-10-22T05:21:54.033Z,91.82
2022-10-22T05:24:22.499Z,91.89
2022-10-22T05:26:54.510Z,92.24
2022-10-22T05:29:23.855Z,92.31
2022-10-22T05:31:52.116Z,92.06
2022-10-22T05:34:20.389Z,91.85
2022-10-22T05:36:48.281Z,92.10
2022-10-22T05:39:16.199Z,92.69
2022-10-22T05:41:44.092Z,92.53
2022-10-22T05:44:13.266Z,92.22
2022-10-22T05:46:43.298Z,92.14
2022-10-22T05:49:13.862Z,92.01
2022-10-22T05:51:41.907Z,91.82
2022-10-22T05:54:17.653Z,92.34
2022-10-22T05:56:46.383Z,92.28
2022-10-22T05:59:14.366Z,92.28
2022-10-22T06:01:42.529Z,92.62
2022-10-22T06:04:12.372Z,92.79
2022-10-22T06:06:49.110Z,92.77
2022-10-22T06:12:09.087Z,92.99
2022-10-22T06:14:37.228Z,92.89
2022-10-22T06:17:05.077Z,93.00
2022-10-22T06:19:32.957Z,93.30
2022-10-22T06:22:00.794Z,93.45
2022-10-22T06:24:28.633Z,93.46
2022-10-22T06:26:56.602Z,93.47
2022-10-22T06:29:24.455Z,93.40
2022-10-22T06:31:52.323Z,93.17
2022-10-22T06:34:20.636Z,93.31
2022-10-22T06:36:48.529Z,93.32
2022-10-22T06:39:18.060Z,93.21
2022-10-22T06:41:46.990Z,93.54
2022-10-22T06:44:19.638Z,92.99
2022-10-22T06:46:52.167Z,93.18
2022-10-22T06:49:20.801Z,93.02
2022-10-22T06:51:53.269Z,92.73
2022-10-22T06:54:22.598Z,92.82
2022-10-22T06:56:50.547Z,93.00
2022-10-22T06:59:18.331Z,92.75
2022-10-22T07:01:46.262Z,92.28
2022-10-22T07:04:14.129Z,92.38
2022-10-22T07:06:42.013Z,92.04
2022-10-22T07:09:10.012Z,92.15
2022-10-22T07:11:42.134Z,92.10
2022-10-22T07:14:11.081Z,91.84
2022-10-22T07:16:38.987Z,91.69
2022-10-22T07:19:06.800Z,91.72
2022-10-22T07:21:35.132Z,91.13
2022-10-22T07:24:03.272Z,90.91
2022-10-22T07:26:32.716Z,90.68
2022-10-22T07:29:01.228Z,90.37
2022-10-22T07:31:29.262Z,90.75
2022-10-22T07:33:57.987Z,90.90
2022-10-22T07:36:26.144Z,90.63
2022-10-22T07:38:57.456Z,90.18
2022-10-22T07:41:28.168Z,88.63
2022-10-22T07:43:57.599Z,89.36
2022-10-22T07:46:26.667Z,89.59
2022-10-22T07:48:54.795Z,89.66
2022-10-22T07:51:23.044Z,89.51
2022-10-22T07:53:50.924Z,89.50
2022-10-22T07:56:18.801Z,89.28
2022-10-22T07:58:46.671Z,89.00
2022-10-22T08:01:14.700Z,88.85
2022-10-22T08:03:42.769Z,87.68
2022-10-22T08:06:13.749Z,87.33
2022-10-22T08:08:43.547Z,87.60
2022-10-22T08:11:12.041Z,87.68
2022-10-22T08:13:44.842Z,87.42
2022-10-22T08:16:14.112Z,87.14
2022-10-22T08:18:42.479Z,87.08
2022-10-22T08:21:13.937Z,86.77
2022-10-22T08:23:41.796Z,85.63
2022-10-22T08:26:11.219Z,84.69
2022-10-22T08:28:39.605Z,83.75
2022-10-22T08:31:08.438Z,83.72
2022-10-22T08:33:38.960Z,83.74
2022-10-22T08:36:08.128Z,82.97
2022-10-22T08:38:36.460Z,83.69
2022-10-22T08:41:19.839Z,84.36
2022-10-22T08:44:07.008Z,83.45
2022-10-22T08:46:52.315Z,83.52
2022-10-22T08:49:30.131Z,83.84
2022-10-22T08:51:59.563Z,84.40
2022-10-22T08:54:55.866Z,83.77
2022-10-22T08:57:51.394Z,83.91
2022-10-22T09:00:52.637Z,83.97
2022-10-22T09:03:45.659Z,83.68
2022-10-22T09:06:24.304Z,83.80
2022-10-22T09:08:53.850Z,83.98
2022-10-22T09:11:38.057Z,83.48
2022-10-22T09:14:06.537Z,83.38
2022-10-22T09:16:34.378Z,83.45
2022-10-22T09:19:25.686Z,83.13
2022-10-22T09:22:16.972Z,83.36
2022-10-22T09:24:53.401Z,82.30
2022-10-22T09:27:27.370Z,81.42
2022-10-22T09:30:25.589Z,80.47
2022-10-22T09:33:02.891Z,80.26
2022-10-22T09:35:35.196Z,80.64
2022-10-22T09:38:08.619Z,79.72
2022-10-22T09:40:45.159Z,79.91
2022-10-22T09:43:14.312Z,80.17
2022-10-22T09:45:43.656Z,80.22
2022-10-22T09:48:14.584Z,79.08
2022-10-22T09:50:48.169Z,79.02
2022-10-22T09:53:20.445Z,78.81
2022-10-22T09:55:57.386Z,79.06
2022-10-22T09:58:25.615Z,79.30
2022-10-22T10:00:58.906Z,79.44
2022-10-22T10:03:29.609Z,79.40
2022-10-22T10:06:03.134Z,79.12
2022-10-22T10:08:34.399Z,79.18
2022-10-22T10:11:17.894Z,79.57
2022-10-22T10:14:13.537Z,79.84
2022-10-22T10:17:12.544Z,80.05
2022-10-22T10:19:53.868Z,80.26
2022-10-22T10:22:58.494Z,79.76
2022-10-22T10:25:45.141Z,80.29
2022-10-22T10:28:31.381Z,80.32
2022-10-22T10:31:30.265Z,80.38
2022-10-22T10:34:06.562Z,80.77
2022-10-22T10:37:16.247Z,80.87
2022-10-22T10:40:03.368Z,81.13
2022-10-22T10:42:41.470Z,81.07
2022-10-22T10:45:20.156Z,81.06
2022-10-22T10:47:59.984Z,81.22
2022-10-22T10:50:42.583Z,81.40
2022-10-22T10:53:14.911Z,81.76
2022-10-22T10:55:57.581Z,81.84
2022-10-22T10:58:54.505Z,82.26
2022-10-22T11:01:42.405Z,82.23
2022-10-22T11:04:44.423Z,82.37
2022-10-22T11:07:30.293Z,82.34
2022-10-22T11:10:31.961Z,82.41
2022-10-22T11:13:11.991Z,82.61
2022-10-22T11:15:41.061Z,82.91
2022-10-22T11:18:19.036Z,82.95
2022-10-22T11:21:10.025Z,83.00
2022-10-22T11:23:48.378Z,83.08
2022-10-22T11:26:29.630Z,83.03
2022-10-22T11:29:01.666Z,83.64
2022-10-22T11:31:31.768Z,83.44
2022-10-22T11:34:35.051Z,83.69
2022-10-22T11:37:06.474Z,83.74
2022-10-22T11:39:40.338Z,83.74
2022-10-22T11:42:18.374Z,83.94
2022-10-22T11:44:48.346Z,83.73
2022-10-22T11:47:24.787Z,83.79
2022-10-22T11:50:17.228Z,83.83
2022-10-22T11:53:14.366Z,84.29
2022-10-22T11:55:46.635Z,84.30
2022-10-22T11:58:35.186Z,84.57
2022-10-22T12:01:02.919Z,84.57
2022-10-22T12:03:33.515Z,84.77
2022-10-22T12:06:15.080Z,84.91
2022-10-22T12:08:53.146Z,85.34
2022-10-22T12:11:36.499Z,85.95
2022-10-22T12:14:26.763Z,86.48
2022-10-22T12:17:16.370Z,86.71
2022-10-22T12:20:02.096Z,86.90
2022-10-22T12:22:33.041Z,87.43
2022-10-22T12:25:02.845Z,87.35
2022-10-22T12:27:39.826Z,88.72
2022-10-22T12:30:34.697Z,88.83
2022-10-22T12:33:05.751Z,89.01
2022-10-22T12:35:42.226Z,89.46
2022-10-22T12:38:18.955Z,89.74
2022-10-22T12:40:49.118Z,89.52
2022-10-22T12:43:26.328Z,90.16
2022-10-22T12:45:55.336Z,89.94
2022-10-22T12:48:40.388Z,90.24
2022-10-22T12:51:13.123Z,90.32
2022-10-22T12:53:56.564Z,90.60
2022-10-22T12:56:27.818Z,90.47
2022-10-22T12:59:00.604Z,90.69
2022-10-22T13:01:34.233Z,90.67
2022-10-22T13:04:07.561Z,90.94
2022-10-22T13:06:36.516Z,91.38
2022-10-22T13:09:23.948Z,91.35
2022-10-22T13:12:03.272Z,91.83
2022-10-22T13:14:34.337Z,91.50
2022-10-22T13:17:08.949Z,91.33
2022-10-22T13:19:38.525Z,91.54
2022-10-22T13:22:24.316Z,91.31
2022-10-22T13:24:52.344Z,91.43
2022-10-22T13:27:20.462Z,91.28
2022-10-22T13:29:48.400Z,91.16
2022-10-22T13:32:33.816Z,91.55
2022-10-22T13:35:03.575Z,91.39
2022-10-22T13:37:34.253Z,91.82
2022-10-22T13:40:02.151Z,91.53
2022-10-22T13:42:29.986Z,91.65
2022-10-22T13:44:57.859Z,91.38
2022-10-22T13:47:29.611Z,91.22
2022-10-22T13:50:01.630Z,91.55
2022-10-22T13:52:40.122Z,91.42
2022-10-22T13:55:34.322Z,91.43
2022-10-22T14:00:57.473Z,92.07
2022-10-22T14:03:32.509Z,92.39
2022-10-22T14:06:00.711Z,92.48
2022-10-22T14:08:28.820Z,92.78
2022-10-22T14:10:57.093Z,92.59
2022-10-22T14:13:24.981Z,92.56
2022-10-22T14:15:52.987Z,92.98
2022-10-22T14:18:27.472Z,93.45
2022-10-22T14:20:58.120Z,93.57
2022-10-22T14:23:29.664Z,93.63
2022-10-22T14:25:58.942Z,94.33
2022-10-22T14:28:27.583Z,94.62
2022-10-22T14:30:55.860Z,94.25
2022-10-22T14:33:32.055Z,94.89
2022-10-22T14:36:00.926Z,95.40
2022-10-22T14:38:29.685Z,95.64
2022-10-22T14:40:59.724Z,95.72
2022-10-22T14:43:31.212Z,95.75
2022-10-22T14:45:59.367Z,95.87
2022-10-22T14:48:27.217Z,96.60
2022-10-22T14:50:55.379Z,96.67
2022-10-22T14:53:23.206Z,96.77
2022-10-22T14:55:52.240Z,96.72
2022-10-22T14:58:20.087Z,96.64
2022-10-22T15:00:47.975Z,97.50
2022-10-22T15:03:15.822Z,97.31
2022-10-22T15:05:45.023Z,97.47
2022-10-22T15:08:14.498Z,98.13
2022-10-22T15:10:42.698Z,97.96
2022-10-22T15:13:10.778Z,98.62
2022-10-22T15:15:41.748Z,98.25
2022-10-22T15:18:09.582Z,98.68
2022-10-22T15:20:37.428Z,98.31
2022-10-22T15:23:05.385Z,98.60
2022-10-22T15:25:33.306Z,98.42
2022-10-22T15:28:09.136Z,99.23
2022-10-22T15:30:37.876Z,99.71
2022-10-22T15:33:06.415Z,99.78
2022-10-22T15:35:34.349Z,99.49
2022-10-22T15:38:02.333Z,99.63
2022-10-22T15:40:30.155Z,100.00
2022-10-22T15:42:58.158Z,100.00
2022-10-22T15:45:26.039Z,100.00
2022-10-22T15:47:53.916Z,100.00
2022-10-22T15:50:21.999Z,100.00
2022-10-22T15:52:50.327Z,100.00
2022-10-22T15:55:18.922Z,100.00
2022-10-22T15:57:46.811Z,100.00
2022-10-22T16:00:15.054Z,100.00
2022-10-22T16:02:43.925Z,100.00
2022-10-22T16:05:11.813Z,100.00
2022-10-22T16:07:39.873Z,100.00
2022-10-22T16:10:08.433Z,100.00
2022-10-22T16:12:36.276Z,100.00
2022-10-22T16:15:04.461Z,100.00
2022-10-22T16:17:32.366Z,100.00
2022-10-22T16:20:00.298Z,100.00
2022-10-22T16:22:28.218Z,100.00
2022-10-22T16:24:56.051Z,100.00
2022-10-22T16:27:23.880Z,100.00
2022-10-22T16:29:51.704Z,100.00
2022-10-22T16:32:19.732Z,100.00
2022-10-22T16:34:47.559Z,100.00
2022-10-22T16:37:15.386Z,100.00
2022-10-22T16:39:43.218Z,100.00
2022-10-22T16:42:11.033Z,100.00
2022-10-22T16:44:38.985Z,100.00
2022-10-22T16:47:06.861Z,100.00
2022-10-22T16:49:34.756Z,100.00
2022-10-22T16:52:02.638Z,100.00
2022-10-22T16:54:30.768Z,100.00
2022-10-22T16:56:58.564Z,100.00
2022-10-22T16:59:26.489Z,100.00
2022-10-22T17:01:55.073Z,100.00
2022-10-22T17:04:23.714Z,100.00
2022-10-22T17:06:51.636Z,100.00
2022-10-22T17:09:19.609Z,100.00
2022-10-22T17:11:47.516Z,100.00
2022-10-22T17:14:15.372Z,100.00
2022-10-22T17:16:43.417Z,100.00
2022-10-22T17:19:15.890Z,100.00
2022-10-22T17:21:43.779Z,100.00
2022-10-22T17:24:11.644Z,100.00
2022-10-22T17:26:39.492Z,100.00
2022-10-22T17:29:07.326Z,100.00
2022-10-22T17:31:37.548Z,100.00
2022-10-22T17:34:08.260Z,100.00
2022-10-22T17:36:37.398Z,100.00
2022-10-22T17:39:07.576Z,100.00
2022-10-22T17:41:36.996Z,100.00
2022-10-22T17:44:07.143Z,100.00
2022-10-22T17:46:35.028Z,100.00
2022-10-22T17:49:05.533Z,100.00
2022-10-22T17:51:33.712Z,100.00
2022-10-22T17:54:03.428Z,100.00
2022-10-22T17:56:33.836Z,100.00
2022-10-22T17:59:02.364Z,100.00
2022-10-22T18:01:33.287Z,100.00
2022-10-22T18:04:07.903Z,100.00
2022-10-22T18:06:36.992Z,100.00
2022-10-22T18:09:07.216Z,100.00
2022-10-22T18:11:37.050Z,100.00
2022-10-22T18:14:05.193Z,100.00
2022-10-22T18:16:33.225Z,100.00
2022-10-22T18:19:01.355Z,100.00
2022-10-22T18:21:30.288Z,100.00
2022-10-22T18:23:59.703Z,100.00
2022-10-22T18:26:27.513Z,100.00
2022-10-22T18:28:57.398Z,100.00
2022-10-22T18:31:27.377Z,100.00
2022-10-22T18:33:55.742Z,100.00
2022-10-22T18:36:25.942Z,100.00
2022-10-22T18:38:59.721Z,100.00
2022-10-22T18:41:29.275Z,100.00
2022-10-22T18:44:02.598Z,100.00
2022-10-22T18:46:34.755Z,100.00
2022-10-22T18:49:02.574Z,100.00
2022-10-22T18:51:31.642Z,100.00
2022-10-22T18:54:05.870Z,100.00
2022-10-22T18:56:47.497Z,100.00
2022-10-22T18:59:19.588Z,100.00
2022-10-22T19:01:47.900Z,100.00
2022-10-22T19:04:15.781Z,100.00
2022-10-22T19:06:45.712Z,100.00
2022-10-22T19:09:15.944Z,100.00
2022-10-22T19:11:45.228Z,100.00
2022-10-22T19:14:14.873Z,100.00
2022-10-22T19:16:42.836Z,100.00
2022-10-22T19:19:11.488Z,100.00
2022-10-22T19:21:39.292Z,100.00
2022-10-22T19:24:07.417Z,100.00
2022-10-22T19:26:35.253Z,100.00
2022-10-22T19:29:03.689Z,100.00
2022-10-22T19:31:32.239Z,100.00
2022-10-22T19:34:01.707Z,100.00
2022-10-22T19:36:32.589Z,100.00
2022-10-22T19:39:00.885Z,100.00
2022-10-22T19:41:32.372Z,100.00
2022-10-22T19:44:00.819Z,100.00
2022-10-22T19:46:32.502Z,100.00
2022-10-22T19:49:03.159Z,100.00
2022-10-22T19:51:33.967Z,100.00
2022-10-22T19:54:07.096Z,100.00
2022-10-22T19:56:36.185Z,100.00
2022-10-22T19:59:05.433Z,100.00
2022-10-22T20:01:33.385Z,100.00
2022-10-22T20:04:01.705Z,100.00
2022-10-22T20:06:30.257Z,100.00
2022-10-22T20:08:58.290Z,100.00
2022-10-22T20:11:29.112Z,100.00
2022-10-22T20:13:57.540Z,100.00
2022-10-22T20:16:29.929Z,100.00
2022-10-22T20:19:04.016Z,100.00
2022-10-22T20:21:32.127Z,100.00
2022-10-22T20:24:01.442Z,100.00
2022-10-22T20:26:29.608Z,100.00
2022-10-22T20:28:58.105Z,100.00
2022-10-22T20:31:29.316Z,100.00
2022-10-22T20:33:59.159Z,100.00
2022-10-22T20:36:28.425Z,100.00
2022-10-22T20:39:03.798Z,100.00
2022-10-22T20:41:34.080Z,100.00
2022-10-22T20:44:02.051Z,100.00
2022-10-22T20:46:32.061Z,100.00
2022-10-22T20:49:04.569Z,100.00
2022-10-22T20:51:32.577Z,100.00
2022-10-22T20:54:00.824Z,100.00
2022-10-22T20:56:28.868Z,100.00
2022-10-22T20:59:05.007Z,100.00
2022-10-22T21:01:38.835Z,100.00
2022-10-22T21:04:07.258Z,100.00
2022-10-22T21:06:38.301Z,100.00
2022-10-22T21:09:07.757Z,100.00
2022-10-22T21:11:37.186Z,100.00
2022-10-22T21:14:23.409Z,100.00
2022-10-22T21:16:51.766Z,100.00
2022-10-22T21:19:20.474Z,100.00
2022-10-22T21:21:49.442Z,100.00
2022-10-22T21:24:17.561Z,100.00
2022-10-22T21:26:45.398Z,100.00
2022-10-22T21:29:13.637Z,100.00
2022-10-22T21:31:41.577Z,100.00
2022-10-22T21:34:09.626Z,100.00
2022-10-22T21:36:37.514Z,100.00
2022-10-22T21:39:08.222Z,100.00
2022-10-22T21:41:36.945Z,100.00
2022-10-22T21:44:04.900Z,100.00
2022-10-22T21:46:34.912Z,100.00
2022-10-22T21:49:05.307Z,100.00
2022-10-22T21:51:38.123Z,100.00
2022-10-22T21:54:06.293Z,100.00
2022-10-22T21:56:36.061Z,100.00
2022-10-22T21:59:05.558Z,100.00
2022-10-22T22:01:34.011Z,100.00
2022-10-22T22:04:02.330Z,100.00
2022-10-22T22:06:33.379Z,100.00
2022-10-22T22:09:03.947Z,100.00
2022-10-22T22:11:32.573Z,100.00
2022-10-22T22:14:00.403Z,100.00
2022-10-22T22:16:31.382Z,100.00
2022-10-22T22:19:01.743Z,100.00
2022-10-22T22:21:30.078Z,100.00
2022-10-22T22:23:58.742Z,100.00
2022-10-22T22:26:29.845Z,100.00
2022-10-22T22:28:59.958Z,100.00
2022-10-22T22:31:31.372Z,100.00
2022-10-22T22:34:05.313Z,100.00
2022-10-22T22:36:36.602Z,100.00
2022-10-22T22:39:07.246Z,100.00
2022-10-22T22:41:35.100Z,100.00
2022-10-22T22:44:02.995Z,100.00
2022-10-22T22:46:31.115Z,100.00
2022-10-22T22:48:58.911Z,100.00
2022-10-22T22:51:26.821Z,100.00
2022-10-22T22:53:54.833Z,100.00
2022-10-22T22:56:25.360Z,100.00
2022-10-22T22:58:53.235Z,100.00
2022-10-22T23:01:27.029Z,100.00
2022-10-22T23:04:03.680Z,100.00
2022-10-22T23:06:34.860Z,100.00
2022-10-22T23:09:04.752Z,100.00
2022-10-22T23:11:33.278Z,100.00
2022-10-22T23:14:03.579Z,100.00
2022-10-22T23:16:34.034Z,100.00
2022-10-22T23:19:02.436Z,100.00
2022-10-22T23:21:34.047Z,100.00
2022-10-22T23:24:06.258Z,100.00
2022-10-22T23:26:37.536Z,100.00
2022-10-22T23:29:14.857Z,100.00
2022-10-22T23:31:44.122Z,100.00
2022-10-22T23:34:14.995Z,100.00
2022-10-22T23:36:43.009Z,100.00
2022-10-22T23:39:13.893Z,100.00
2022-10-22T23:41:41.849Z,100.00
2022-10-22T23:44:10.682Z,100.00
2022-10-22T23:46:39.180Z,100.00
2022-10-22T23:49:08.365Z,100.00
2022-10-22T23:51:36.597Z,100.00
2022-10-22T23:54:11.205Z,100.00
2022-10-22T23:56:39.401Z,100.00
2022-10-22T23:59:07.969Z,100.00
